Time;durP1;ratioP1;P1;durP2;ratioP2;P2;SDS_P1;SDS_P2;PMS_P1;PMS_P2;Temp;Humidity;BMP_temperature;BMP_pressure;BME280_temperature;BME280_humidity;BME280_pressure;Samples;Min_cycle;Max_cycle;Signal;HPM_P1;HPM_P2
2023/04/17 00:01:04;;;;;;;44.65;24.35;;;;;;;9.57;100.00;102042.63;5054036;28;20396;-76
2023/04/17 00:03:30;;;;;;;47.85;23.83;;;;;;;9.54;100.00;102028.69;5061915;28;20048;-75
2023/04/17 00:05:57;;;;;;;44.97;23.05;;;;;;;9.54;100.00;102043.41;5052565;28;20045;-77
2023/04/17 00:08:24;;;;;;;41.60;24.15;;;;;;;9.51;100.00;102030.25;5073648;28;20708;-76
2023/04/17 00:10:50;;;;;;;44.20;24.90;;;;;;;9.42;100.00;102015.88;5051946;28;20048;-76
2023/04/17 00:13:32;;;;;;;39.28;24.25;;;;;;;9.56;100.00;102038.25;5062605;28;20167;-76
2023/04/17 00:15:58;;;;;;;45.10;25.45;;;;;;;9.59;100.00;102042.25;5062504;28;20048;-76
2023/04/17 00:18:25;;;;;;;49.33;26.25;;;;;;;9.58;100.00;102043.41;5063582;28;20052;-76
2023/04/17 00:20:52;;;;;;;48.03;27.52;;;;;;;9.57;100.00;102042.63;5061790;28;20075;-75
2023/04/17 00:23:19;;;;;;;43.95;25.25;;;;;;;9.55;100.00;102039.44;5061756;28;20080;-76
2023/04/17 00:25:45;;;;;;;45.08;24.90;;;;;;;9.56;100.00;102043.78;5065503;28;20109;-76
2023/04/17 00:28:12;;;;;;;47.05;25.05;;;;;;;9.56;100.00;102040.25;5055401;28;20102;-76
2023/04/17 00:30:38;;;;;;;44.60;24.48;;;;;;;9.55;100.00;102035.84;5067886;28;20118;-78
2023/04/17 00:33:05;;;;;;;44.22;23.25;;;;;;;9.55;100.00;102044.16;5059537;28;20044;-75
2023/04/17 00:35:31;;;;;;;38.25;22.10;;;;;;;9.53;100.00;102043.78;5064795;28;20727;-75
2023/04/17 00:37:58;;;;;;;40.85;23.75;;;;;;;9.56;100.00;102045.78;5058870;28;20155;-76
2023/04/17 00:40:24;;;;;;;46.28;25.65;;;;;;;9.57;100.00;102036.28;5067873;28;20052;-76
2023/04/17 00:42:54;;;;;;;44.20;25.42;;;;;;;9.53;100.00;102041.00;5067199;28;20499;-75
2023/04/17 00:45:21;;;;;;;46.10;24.95;;;;;;;9.55;100.00;102038.63;5060816;28;20075;-75
2023/04/17 00:47:48;;;;;;;43.20;24.42;;;;;;;9.50;100.00;102041.75;5067137;28;20075;-76
2023/04/17 00:50:15;;;;;;;47.17;25.38;;;;;;;9.53;100.00;102039.00;5074313;28;20051;-76
2023/04/17 00:52:42;;;;;;;41.17;24.33;;;;;;;9.53;100.00;102035.44;5058302;28;20604;-76
2023/04/17 00:55:09;;;;;;;45.25;23.70;;;;;;;9.54;100.00;102031.47;5067531;28;20127;-76
2023/04/17 00:57:36;;;;;;;37.92;23.88;;;;;;;9.54;100.00;102031.47;5074916;28;20048;-76
2023/04/17 01:00:03;;;;;;;44.40;25.27;;;;;;;9.55;100.00;102030.28;5071828;28;20506;-77
2023/04/17 01:02:29;;;;;;;44.13;25.60;;;;;;;9.58;100.00;102029.53;5058313;28;20048;-76
2023/04/17 01:04:56;;;;;;;47.53;26.73;;;;;;;9.57;100.00;102025.16;5060288;28;20048;-76
2023/04/17 01:07:23;;;;;;;52.80;26.48;;;;;;;9.57;100.00;102033.50;5065656;28;20814;-76
2023/04/17 01:09:49;;;;;;;50.65;26.38;;;;;;;9.56;100.00;102037.47;5070758;28;20051;-76
2023/04/17 01:12:20;;;;;;;53.47;27.63;;;;;;;9.58;100.00;102035.09;5070247;28;20064;-75
2023/04/17 01:14:54;;;;;;;45.85;25.45;;;;;;;9.57;100.00;102033.50;5060789;28;20098;-77
2023/04/17 01:17:22;;;;;;;50.25;27.17;;;;;;;9.56;100.00;102032.69;5054698;28;20060;-76
2023/04/17 01:19:49;;;;;;;47.47;24.85;;;;;;;9.52;100.00;102029.06;5051903;28;20132;-76
2023/04/17 01:22:16;;;;;;;47.58;26.80;;;;;;;9.56;100.00;102040.25;5061874;28;20063;-75
2023/04/17 01:24:43;;;;;;;46.42;27.10;;;;;;;9.50;100.00;102033.41;5060204;28;20049;-76
2023/04/17 01:27:12;;;;;;;46.53;25.50;;;;;;;9.51;100.00;102033.03;5062489;28;20049;-76
2023/04/17 01:29:40;;;;;;;43.25;26.08;;;;;;;9.51;100.00;102033.03;5066157;28;20075;-77
2023/04/17 01:32:06;;;;;;;42.22;24.30;;;;;;;9.50;100.00;102028.69;5063727;28;20063;-76
2023/04/17 01:34:34;;;;;;;46.15;26.13;;;;;;;9.52;100.00;102034.63;5060298;28;20399;-76
2023/04/17 01:37:03;;;;;;;44.60;24.23;;;;;;;9.51;100.00;102033.03;5065412;28;20048;-73
2023/04/17 01:39:29;;;;;;;49.42;27.40;;;;;;;9.46;100.00;102036.13;5074488;28;20121;-73
2023/04/17 01:41:56;;;;;;;41.50;25.83;;;;;;;9.44;100.00;102029.38;5065708;28;20045;-77
2023/04/17 01:44:22;;;;;;;48.70;26.17;;;;;;;9.47;100.00;102037.75;5066040;28;20154;-74
2023/04/17 01:46:50;;;;;;;48.58;26.42;;;;;;;9.47;100.00;102036.94;5075511;28;20127;-76
2023/04/17 01:49:16;;;;;;;44.30;25.58;;;;;;;9.42;100.00;102035.28;5064828;28;20056;-74
2023/04/17 01:51:43;;;;;;;47.95;24.52;;;;;;;9.38;100.00;102030.88;5059650;28;20052;-76
2023/04/17 01:54:09;;;;;;;49.17;24.10;;;;;;;9.40;100.00;102042.41;5067187;28;20051;-76
2023/04/17 01:56:36;;;;;;;43.65;25.08;;;;;;;9.41;100.00;102042.03;5075134;28;20079;-76
2023/04/17 01:59:02;;;;;;;45.97;26.48;;;;;;;9.37;100.00;102043.16;5066995;28;20064;-77
2023/04/17 02:01:29;;;;;;;44.28;25.98;;;;;;;9.32;100.00;102043.50;5066540;28;20048;-76
2023/04/17 02:03:56;;;;;;;43.00;23.00;;;;;;;9.37;100.00;102043.97;5061817;28;20680;-76
2023/04/17 02:06:23;;;;;;;43.85;25.50;;;;;;;9.37;100.00;102048.72;5056817;28;20055;-76
2023/04/17 02:08:50;;;;;;;46.60;26.27;;;;;;;9.34;100.00;102043.91;5066652;28;20041;-76
2023/04/17 02:11:17;;;;;;;40.33;24.35;;;;;;;9.37;100.00;102049.53;5073427;28;20066;-74
2023/04/17 02:13:43;;;;;;;40.72;24.83;;;;;;;9.38;100.00;102053.91;5065986;28;20519;-76
2023/04/17 02:16:11;;;;;;;47.08;25.40;;;;;;;9.36;100.00;102049.91;5064407;28;20047;-76
2023/04/17 02:18:39;;;;;;;43.25;25.27;;;;;;;9.36;100.00;102049.91;5066944;28;20056;-77
2023/04/17 02:21:09;;;;;;;44.08;24.60;;;;;;;9.37;100.00;102051.50;5068837;28;20044;-77
2023/04/17 02:23:35;;;;;;;45.38;27.67;;;;;;;9.32;100.00;102049.06;5064515;28;20049;-78
2023/04/17 02:26:02;;;;;;;41.88;24.75;;;;;;;9.30;100.00;102049.44;5060066;28;20067;-77
2023/04/17 02:28:28;;;;;;;41.72;24.95;;;;;;;9.26;100.00;102056.91;5067698;28;20057;-78
2023/04/17 02:30:55;;;;;;;46.03;27.50;;;;;;;9.23;100.00;102051.31;5069326;28;20049;-77
2023/04/17 02:33:24;;;;;;;42.63;24.77;;;;;;;9.23;100.00;102054.09;5069281;28;20506;-78
2023/04/17 02:35:51;;;;;;;43.80;24.05;;;;;;;9.21;100.00;102051.69;5068810;28;20590;-78
2023/04/17 02:38:18;;;;;;;41.35;23.65;;;;;;;9.18;100.00;102046.06;5063954;28;20060;-77
2023/04/17 02:40:44;;;;;;;44.38;24.63;;;;;;;9.16;100.00;102048.44;5061752;28;20056;-77
2023/04/17 02:43:12;;;;;;;40.90;23.80;;;;;;;9.13;100.00;102046.41;5067838;28;20160;-77
2023/04/17 02:45:39;;;;;;;44.85;25.27;;;;;;;9.07;100.00;102048.72;5060233;28;20041;-78
2023/04/17 02:48:05;;;;;;;41.88;25.45;;;;;;;9.06;100.00;102052.69;5069933;28;20041;-76
2023/04/17 02:50:32;;;;;;;42.92;24.40;;;;;;;9.01;100.00;102053.00;5070869;28;20835;-77
2023/04/17 02:52:59;;;;;;;40.53;23.90;;;;;;;9.02;100.00;102054.59;5062958;28;20048;-79
2023/04/17 02:55:25;;;;;;;42.58;23.95;;;;;;;9.03;100.00;102049.84;5054269;28;20041;-79
2023/04/17 02:57:52;;;;;;;44.90;24.42;;;;;;;8.98;100.00;102062.06;5058784;28;20102;-78
2023/04/17 03:00:19;;;;;;;42.88;24.05;;;;;;;8.93;100.00;102056.84;5061718;28;20064;-77
2023/04/17 03:02:46;;;;;;;44.83;25.20;;;;;;;8.94;100.00;102046.53;5056600;28;20139;-77
2023/04/17 03:05:15;;;;;;;41.53;24.48;;;;;;;8.94;100.00;102060.41;5059928;28;20052;-77
2023/04/17 03:07:41;;;;;;;43.42;24.15;;;;;;;8.91;100.00;102053.63;5077161;28;20503;-76
2023/04/17 03:10:08;;;;;;;42.13;24.27;;;;;;;8.88;100.00;102057.16;5061872;28;20072;-78
2023/04/17 03:12:35;;;;;;;46.03;25.48;;;;;;;8.86;100.00;102055.94;5068915;28;20048;-77
2023/04/17 03:15:01;;;;;;;47.67;23.65;;;;;;;8.87;100.00;102057.53;5068255;28;20502;-78
2023/04/17 03:17:28;;;;;;;46.45;25.42;;;;;;;8.83;100.00;102062.22;5057045;28;20063;-77
2023/04/17 03:19:54;;;;;;;47.38;27.60;;;;;;;8.76;100.00;102054.63;5062334;28;20048;-75
2023/04/17 03:22:21;;;;;;;44.13;24.52;;;;;;;8.73;100.00;102058.13;5067201;28;20048;-77
2023/04/17 03:24:47;;;;;;;41.58;23.52;;;;;;;8.70;100.00;102069.16;5067244;28;20064;-76
2023/04/17 03:27:14;;;;;;;44.42;24.55;;;;;;;8.75;100.00;102058.53;5074627;28;20139;-76
2023/04/17 03:29:43;;;;;;;45.38;26.17;;;;;;;8.75;100.00;102054.97;5079461;28;20054;-77
2023/04/17 03:32:10;;;;;;;45.00;25.42;;;;;;;8.74;100.00;102059.72;5055870;28;20521;-77
2023/04/17 03:34:37;;;;;;;41.47;23.40;;;;;;;8.77;100.00;102060.94;5060510;28;20049;-77
2023/04/17 03:37:03;;;;;;;45.85;25.50;;;;;;;8.74;100.00;102056.94;5062671;28;20052;-78
2023/04/17 03:39:29;;;;;;;48.55;26.65;;;;;;;8.75;100.00;102061.31;5067258;28;20064;-76
2023/04/17 03:41:56;;;;;;;43.40;24.10;;;;;;;8.75;100.00;102071.63;5062904;28;20050;-77
2023/04/17 03:44:22;;;;;;;43.33;25.10;;;;;;;8.76;100.00;102062.13;5068892;28;20145;-78
2023/04/17 03:46:49;;;;;;;47.88;26.10;;;;;;;8.76;100.00;102067.66;5067606;28;20052;-76
2023/04/17 03:49:15;;;;;;;44.03;25.10;;;;;;;8.75;100.00;102074.41;5064624;28;20055;-77
2023/04/17 03:51:42;;;;;;;48.10;27.52;;;;;;;8.73;100.00;102065.63;5067951;28;20102;-78
2023/04/17 03:54:09;;;;;;;48.08;27.25;;;;;;;8.68;100.00;102063.97;5061287;28;20530;-77
2023/04/17 03:56:35;;;;;;;49.15;28.17;;;;;;;8.75;100.00;102071.63;5061116;28;20499;-78
2023/04/17 03:59:03;;;;;;;46.13;28.27;;;;;;;8.74;100.00;102070.81;5060405;28;20048;-75
2023/04/17 04:01:31;;;;;;;48.53;28.80;;;;;;;8.77;100.00;102069.25;5066707;28;20053;-77
2023/04/17 04:03:58;;;;;;;53.08;29.05;;;;;;;8.77;100.00;102077.56;5057179;28;20125;-75
2023/04/17 04:06:28;;;;;;;51.10;30.08;;;;;;;8.76;100.00;102076.78;5067862;28;20079;-77
2023/04/17 04:08:55;;;;;;;51.17;29.60;;;;;;;8.75;100.00;102077.16;5065551;28;20480;-78
2023/04/17 04:11:22;;;;;;;47.55;27.40;;;;;;;8.76;100.00;102085.13;5076903;28;20057;-75
2023/04/17 04:13:48;;;;;;;50.45;28.20;;;;;;;8.71;100.00;102076.31;5075346;28;20357;-76
2023/04/17 04:16:15;;;;;;;58.95;32.20;;;;;;;8.73;100.00;102088.63;5076017;28;20155;-74
2023/04/17 04:18:42;;;;;;;56.05;30.00;;;;;;;8.69;100.00;102082.22;5064937;28;20068;-75
2023/04/17 04:21:10;;;;;;;52.58;26.08;;;;;;;8.71;100.00;102085.41;5062894;28;20110;-77
2023/04/17 04:23:40;;;;;;;53.60;29.38;;;;;;;8.69;100.00;102085.00;5059697;28;20048;-75
2023/04/17 04:26:06;;;;;;;50.72;28.50;;;;;;;8.67;100.00;102092.88;5067312;28;20131;-75
2023/04/17 04:28:33;;;;;;;54.78;30.23;;;;;;;8.63;100.00;102088.44;5066579;28;20053;-74
2023/04/17 04:31:01;;;;;;;54.10;29.90;;;;;;;8.63;100.00;102096.75;5067834;28;20154;-73
2023/04/17 04:33:28;;;;;;;52.55;30.05;;;;;;;8.61;100.00;102094.38;5067181;28;20049;-75
2023/04/17 04:35:55;;;;;;;52.88;29.58;;;;;;;8.61;100.00;102107.41;5064098;28;20094;-75
2023/04/17 04:38:28;;;;;;;54.25;30.73;;;;;;;8.60;100.00;102105.78;5057919;28;20044;-77
2023/04/17 04:41:04;;;;;;;59.97;32.65;;;;;;;8.59;100.00;102106.97;5061198;28;20040;-75
2023/04/17 04:43:32;;;;;;;58.38;31.88;;;;;;;8.57;100.00;102109.28;5064062;28;20067;-76
2023/04/17 04:45:58;;;;;;;52.42;29.52;;;;;;;8.58;100.00;102110.91;5066486;28;20132;-76
2023/04/17 04:48:25;;;;;;;53.05;29.67;;;;;;;8.51;100.00;102113.56;5063418;28;20049;-74
2023/04/17 04:50:51;;;;;;;58.35;31.85;;;;;;;8.52;100.00;102113.22;5061287;28;20056;-78
2023/04/17 04:53:18;;;;;;;52.25;29.23;;;;;;;8.49;100.00;102115.91;5066755;28;20060;-77
2023/04/17 04:55:44;;;;;;;55.35;31.27;;;;;;;8.50;100.00;102120.25;5065989;28;20064;-75
2023/04/17 04:58:11;;;;;;;57.47;30.48;;;;;;;8.49;100.00;102124.22;5065144;28;20053;-75
2023/04/17 05:00:38;;;;;;;58.30;32.10;;;;;;;8.49;100.00;102124.22;5065663;28;20051;-76
2023/04/17 05:03:05;;;;;;;56.05;30.83;;;;;;;8.48;100.00;102123.41;5067023;28;20560;-76
2023/04/17 05:05:32;;;;;;;55.10;31.63;;;;;;;8.45;100.00;102120.59;5058522;28;20045;-76
2023/04/17 05:07:58;;;;;;;60.22;34.40;;;;;;;8.45;100.00;102126.94;5063834;28;20055;-77
2023/04/17 05:10:25;;;;;;;58.97;32.83;;;;;;;8.43;100.00;102128.47;5067461;28;20135;-75
2023/04/17 05:12:51;;;;;;;60.33;32.45;;;;;;;8.46;100.00;102127.72;5075407;28;20045;-76
2023/04/17 05:15:18;;;;;;;57.85;31.73;;;;;;;8.47;100.00;102130.13;5057383;28;20048;-75
2023/04/17 05:17:44;;;;;;;54.17;30.23;;;;;;;8.50;100.00;102134.13;5063168;28;20056;-76
2023/04/17 05:20:11;;;;;;;57.78;31.02;;;;;;;8.49;100.00;102135.31;5061773;28;20204;-75
2023/04/17 05:22:38;;;;;;;57.22;31.42;;;;;;;8.51;100.00;102139.31;5066277;28;20059;-75
2023/04/17 05:25:04;;;;;;;54.58;31.63;;;;;;;8.51;100.00;102139.31;5073393;28;20044;-75
2023/04/17 05:27:31;;;;;;;54.40;30.63;;;;;;;8.45;100.00;102131.69;5061882;28;20076;-75
2023/04/17 05:29:57;;;;;;;60.25;32.08;;;;;;;8.52;100.00;102148.44;5063534;28;20052;-76
2023/04/17 05:32:24;;;;;;;57.65;30.88;;;;;;;8.53;100.00;102138.94;5065181;28;20056;-76
2023/04/17 05:34:51;;;;;;;58.70;30.75;;;;;;;8.52;100.00;102142.88;5060920;28;20407;-75
2023/04/17 05:37:17;;;;;;;59.92;32.13;;;;;;;8.54;100.00;102138.56;5066715;28;20044;-75
2023/04/17 05:39:44;;;;;;;57.47;33.40;;;;;;;8.55;100.00;102139.38;5073145;28;20568;-76
2023/04/17 05:42:10;;;;;;;57.30;32.58;;;;;;;8.57;100.00;102142.56;5056738;28;20063;-75
2023/04/17 05:44:38;;;;;;;56.65;31.48;;;;;;;8.58;100.00;102149.72;5067182;28;20051;-76
2023/04/17 05:47:04;;;;;;;59.38;34.55;;;;;;;8.57;100.00;102143.38;5061483;28;20072;-77
2023/04/17 05:49:31;;;;;;;57.50;32.78;;;;;;;8.55;100.00;102144.91;5059309;28;20053;-77
2023/04/17 05:51:58;;;;;;;54.83;32.17;;;;;;;8.52;100.00;102146.47;5060066;28;20046;-76
2023/04/17 05:54:26;;;;;;;57.15;32.17;;;;;;;8.54;100.00;102144.13;5066638;28;20052;-77
2023/04/17 05:56:53;;;;;;;61.13;33.03;;;;;;;8.53;100.00;102147.25;5064525;28;20128;-75
2023/04/17 05:59:19;;;;;;;60.03;32.65;;;;;;;8.55;100.00;102145.75;5070203;28;20056;-78
2023/04/17 06:01:46;;;;;;;56.65;32.40;;;;;;;8.58;100.00;102153.28;5058640;28;20068;-76
2023/04/17 06:04:13;;;;;;;60.80;32.75;;;;;;;8.61;100.00;102149.00;5066207;28;20052;-76
2023/04/17 06:06:40;;;;;;;52.75;29.63;;;;;;;8.65;100.00;102160.97;5069189;28;20044;-76
2023/04/17 06:09:08;;;;;;;54.88;30.98;;;;;;;8.69;100.00;102159.88;5064752;28;20052;-77
2023/04/17 06:11:34;;;;;;;51.70;30.33;;;;;;;8.72;100.00;102163.88;5064409;28;20129;-75
2023/04/17 06:14:01;;;;;;;58.20;32.33;;;;;;;8.71;100.00;102159.50;5064219;28;20049;-75
2023/04/17 06:16:27;;;;;;;56.60;30.17;;;;;;;8.71;100.00;102163.06;5068147;28;20048;-74
2023/04/17 06:18:54;;;;;;;58.65;32.80;;;;;;;8.76;100.00;102167.50;5063796;28;20127;-79
2023/04/17 06:21:21;;;;;;;53.97;29.10;;;;;;;8.76;100.00;102165.53;5051633;28;20119;-76
2023/04/17 06:23:48;;;;;;;48.70;28.38;;;;;;;8.76;100.00;102157.22;5053991;28;20099;-77
2023/04/17 06:26:14;;;;;;;57.17;31.50;;;;;;;8.80;100.00;102165.56;5060260;28;20443;-78
2023/04/17 06:28:41;;;;;;;56.15;27.55;;;;;;;8.82;100.00;102177.13;5052870;28;20044;-77
2023/04/17 06:31:07;;;;;;;59.42;31.52;;;;;;;8.79;100.00;102172.31;5069335;28;20135;-75
2023/04/17 06:33:34;;;;;;;51.42;30.08;;;;;;;8.78;100.00;102168.72;5060341;28;20052;-76
2023/04/17 06:36:01;;;;;;;55.53;32.83;;;;;;;8.76;100.00;102179.41;5054817;28;20400;-75
2023/04/17 06:38:28;;;;;;;53.78;32.05;;;;;;;8.79;100.00;102178.66;5067926;28;20076;-77
2023/04/17 06:40:55;;;;;;;58.40;33.55;;;;;;;8.82;100.00;102183.47;5068495;28;20061;-78
2023/04/17 06:43:21;;;;;;;55.70;33.53;;;;;;;8.83;100.00;102192.56;5063768;28;20052;-76
2023/04/17 06:45:48;;;;;;;49.55;27.83;;;;;;;8.83;100.00;102179.53;5061124;28;20046;-75
2023/04/17 06:48:14;;;;;;;43.47;23.13;;;;;;;8.77;100.00;102192.09;5060369;28;20068;-75
2023/04/17 06:50:41;;;;;;;57.58;33.80;;;;;;;8.78;100.00;102190.13;5066943;28;20498;-79
2023/04/17 06:53:08;;;;;;;53.25;32.33;;;;;;;8.84;100.00;102191.41;5063534;28;20040;-77
2023/04/17 06:55:34;;;;;;;56.75;30.55;;;;;;;8.83;100.00;102193.38;5068019;28;20049;-76
2023/04/17 06:58:01;;;;;;;45.78;27.02;;;;;;;8.83;100.00;102192.56;5067533;28;20052;-75
2023/04/17 07:00:27;;;;;;;52.03;27.15;;;;;;;8.89;100.00;102193.88;5068914;28;20045;-77
2023/04/17 07:02:54;;;;;;;52.38;28.63;;;;;;;8.93;100.00;102198.31;5065537;28;20048;-76
2023/04/17 07:05:20;;;;;;;55.55;32.28;;;;;;;8.93;100.00;102203.88;5067119;28;20052;-76
2023/04/17 07:07:47;;;;;;;56.33;32.10;;;;;;;8.97;100.00;102190.84;5064374;28;20051;-76
2023/04/17 07:10:14;;;;;;;56.38;31.42;;;;;;;9.04;100.00;102198.47;5063277;28;20152;-77
2023/04/17 07:12:41;;;;;;;49.63;30.45;;;;;;;9.08;100.00;102202.91;5053074;28;20055;-76
2023/04/17 07:15:08;;;;;;;52.03;31.27;;;;;;;9.13;100.00;102194.28;5068160;28;20511;-76
2023/04/17 07:17:35;;;;;;;50.10;27.50;;;;;;;9.09;100.00;102200.94;5065606;28;20067;-77
2023/04/17 07:20:04;;;;;;;53.53;31.38;;;;;;;9.18;100.00;102196.72;5052295;28;20486;-77
2023/04/17 07:22:30;;;;;;;51.90;32.60;;;;;;;9.24;100.00;102200.78;5064421;28;20059;-75
2023/04/17 07:24:57;;;;;;;50.70;31.77;;;;;;;9.29;100.00;102208.78;5066933;28;20435;-77
2023/04/17 07:27:23;;;;;;;49.78;33.13;;;;;;;9.28;100.00;102211.94;5063649;28;20084;-76
2023/04/17 07:29:53;;;;;;;56.30;32.00;;;;;;;9.33;100.00;102220.78;5061870;28;20677;-76
2023/04/17 07:32:20;;;;;;;51.03;27.67;;;;;;;9.31;100.00;102212.00;5058044;28;20045;-77
2023/04/17 07:34:47;;;;;;;49.90;31.88;;;;;;;9.36;100.00;102214.44;5061875;28;20052;-75
2023/04/17 07:37:14;;;;;;;53.13;30.92;;;;;;;9.37;100.00;102218.84;5065339;28;20089;-74
2023/04/17 07:39:41;;;;;;;53.00;31.60;;;;;;;9.35;100.00;102215.63;5061605;28;20076;-75
2023/04/17 07:42:07;;;;;;;50.75;30.88;;;;;;;9.38;100.00;102219.63;5064056;28;20840;-74
2023/04/17 07:44:34;;;;;;;49.35;28.17;;;;;;;9.38;100.00;102227.97;5060865;28;20044;-74
2023/04/17 07:47:01;;;;;;;50.03;29.70;;;;;;;9.42;100.00;102228.84;5055175;28;20041;-75
2023/04/17 07:49:27;;;;;;;54.22;29.45;;;;;;;9.49;100.00;102223.41;5062348;28;20460;-75
2023/04/17 07:51:54;;;;;;;49.72;30.13;;;;;;;9.55;100.00;102228.22;5060457;28;20045;-75
2023/04/17 07:54:20;;;;;;;50.53;28.63;;;;;;;9.62;100.00;102220.00;5060856;28;20048;-76
2023/04/17 07:56:48;;;;;;;53.42;30.48;;;;;;;9.79;100.00;102226.97;5066728;28;20041;-75
2023/04/17 07:59:17;;;;;;;51.25;30.83;;;;;;;9.88;100.00;102233.06;5067037;28;20094;-75
2023/04/17 08:01:44;;;;;;;47.42;29.75;;;;;;;9.95;100.00;102231.19;5060095;28;20051;-75
2023/04/17 08:04:11;;;;;;;49.83;26.33;;;;;;;9.99;100.00;102231.25;5066691;28;20056;-74
2023/04/17 08:06:38;;;;;;;50.78;27.25;;;;;;;10.02;100.00;102233.28;5051974;28;20041;-74
2023/04/17 08:09:05;;;;;;;48.63;29.65;;;;;;;9.99;100.00;102232.06;5060227;28;20058;-75
2023/04/17 08:11:32;;;;;;;41.17;23.33;;;;;;;10.09;100.00;102241.69;5062340;28;20051;-75
2023/04/17 08:14:16;;;;;;;50.63;29.45;;;;;;;10.16;100.00;102244.56;5056271;28;20053;-75
2023/04/17 08:16:42;;;;;;;47.13;29.40;;;;;;;10.23;100.00;102233.53;5067335;28;20044;-73
2023/04/17 08:19:09;;;;;;;51.15;26.73;;;;;;;10.32;100.00;102231.28;5058670;28;20052;-75
2023/04/17 08:21:36;;;;;;;46.83;28.80;;;;;;;10.42;100.00;102238.94;5058819;28;20131;-75
2023/04/17 08:24:03;;;;;;;44.95;25.83;;;;;;;10.54;100.00;102241.47;5063352;28;20048;-75
2023/04/17 08:26:30;;;;;;;46.33;27.73;;;;;;;10.68;100.00;102241.59;5059630;28;20063;-75
2023/04/17 08:29:00;;;;;;;53.35;28.98;;;;;;;10.76;100.00;102243.28;5063671;28;20056;-74
2023/04/17 08:31:27;;;;;;;46.50;25.50;;;;;;;10.91;100.00;102245.00;5066817;28;20052;-74
2023/04/17 08:33:54;;;;;;;42.33;25.40;;;;;;;11.00;100.00;102236.38;5062269;28;20507;-76
2023/04/17 08:36:39;;;;;;;40.15;23.40;;;;;;;11.11;100.00;102254.72;5064694;28;20056;-76
2023/04/17 08:39:05;;;;;;;41.85;26.63;;;;;;;11.10;100.00;102233.66;5060802;28;20048;-75
2023/04/17 08:41:42;;;;;;;44.10;25.27;;;;;;;11.24;100.00;102249.72;5056182;28;20527;-77
2023/04/17 08:44:09;;;;;;;43.20;24.13;;;;;;;11.28;100.00;102244.97;5063611;28;20048;-75
2023/04/17 08:46:37;;;;;;;38.78;21.48;;;;;;;11.27;100.00;102248.91;5063790;28;20136;-76
2023/04/17 08:49:04;;;;;;;35.72;21.67;;;;;;;11.29;100.00;102252.13;5073458;28;20053;-75
2023/04/17 08:51:31;;;;;;;36.90;20.65;;;;;;;11.32;100.00;102249.38;5075306;28;20079;-75
2023/04/17 08:53:58;;;;;;;34.90;21.60;;;;;;;11.35;100.00;102239.47;5067409;28;20123;-73
2023/04/17 08:56:25;;;;;;;33.22;20.58;;;;;;;11.43;100.00;102250.25;5055919;28;20131;-75
2023/04/17 08:58:51;;;;;;;32.83;18.92;;;;;;;11.44;100.00;102254.63;5067439;28;20135;-75
2023/04/17 09:01:19;;;;;;;32.22;17.95;;;;;;;11.46;100.00;102252.28;5067806;28;20067;-75
2023/04/17 09:03:47;;;;;;;32.05;19.17;;;;;;;11.60;100.00;102255.16;5067503;28;20502;-74
2023/04/17 09:06:15;;;;;;;29.88;17.35;;;;;;;11.74;100.00;102252.47;5062482;28;20426;-75
2023/04/17 09:08:55;;;;;;;32.90;18.70;;;;;;;11.85;100.00;102258.88;5067101;28;20521;-75
2023/04/17 09:11:21;;;;;;;35.00;17.05;;;;;;;11.91;100.00;102254.53;5058209;28;20422;-75
2023/04/17 09:13:48;;;;;;;32.60;17.60;;;;;;;11.98;100.00;102265.72;5059485;28;20197;-76
2023/04/17 09:16:15;;;;;;;28.98;17.15;;;;;;;12.04;100.00;102261.41;5060943;28;20049;-74
2023/04/17 09:18:42;;;;;;;26.92;13.90;;;;;;;12.22;100.00;102259.47;5057908;28;20517;-75
2023/04/17 09:21:09;;;;;;;25.23;13.27;;;;;;;12.30;100.00;102266.66;5060919;28;20127;-74
2023/04/17 09:23:57;;;;;;;29.85;17.58;;;;;;;12.36;100.00;102265.13;5057404;28;20404;-74
2023/04/17 09:26:26;;;;;;;28.65;16.08;;;;;;;12.46;100.00;102260.81;5060737;28;20051;-74
2023/04/17 09:29:10;;;;;;;27.85;15.77;;;;;;;12.57;100.00;102269.19;5067427;28;20077;-71
2023/04/17 09:31:40;;;;;;;26.95;15.30;;;;;;;12.69;100.00;102269.63;5062460;28;20533;-73
2023/04/17 09:34:10;;;;;;;26.88;15.02;;;;;;;12.63;100.00;102265.63;5063446;28;20140;-73
2023/04/17 09:36:40;;;;;;;26.00;14.13;;;;;;;12.67;100.00;102262.84;5069382;28;20131;-73
2023/04/17 09:39:19;;;;;;;26.20;14.13;;;;;;;12.85;100.00;102264.47;5070328;28;20052;-73
2023/04/17 09:41:46;;;;;;;22.58;13.57;;;;;;;12.89;100.00;102262.50;5070669;28;20078;-75
2023/04/17 09:44:25;;;;;;;20.92;8.45;;;;;;;12.95;100.00;102262.91;5064377;28;20052;-74
2023/04/17 09:46:53;;;;;;;24.55;14.73;;;;;;;13.10;100.00;102267.31;5064109;28;20142;-71
2023/04/17 09:49:41;;;;;;;27.27;13.02;;;;;;;13.22;100.00;102269.69;5067298;28;20048;-75
2023/04/17 09:52:08;;;;;;;29.95;15.52;;;;;;;13.29;100.00;102255.72;5061312;28;20123;-75
2023/04/17 09:54:37;;;;;;;26.35;13.45;;;;;;;13.47;100.00;102268.53;5063664;28;20056;-77
2023/04/17 09:57:09;;;;;;;26.48;13.05;;;;;;;13.46;100.00;102266.94;5060924;28;20050;-76
2023/04/17 09:59:44;;;;;;;26.25;14.80;;;;;;;13.50;100.00;102266.94;5067302;28;20755;-75
2023/04/17 10:02:15;;;;;;;;;;;;;;;13.49;100.00;102260.56;5054466;28;20052;-73
2023/04/17 10:04:44;;;;;;;25.25;13.75;;;;;;;13.59;100.00;102258.94;5054735;28;19928;-74
2023/04/17 10:07:15;;;;;;;24.40;12.85;;;;;;;13.55;100.00;102261.75;5056137;28;20041;-75
2023/04/17 10:09:44;;;;;;;24.13;12.73;;;;;;;13.47;100.00;102256.56;5061637;28;20052;-75
2023/04/17 10:12:14;;;;;;;29.15;14.95;;;;;;;13.48;100.00;102258.97;5047304;28;20061;-74
2023/04/17 10:14:45;;;;;;;25.02;13.88;;;;;;;13.64;100.00;102264.13;5053626;28;20062;-73
2023/04/17 10:17:33;;;;;;;26.85;16.00;;;;;;;13.80;100.00;102258.88;5050378;28;20480;-73
2023/04/17 10:20:18;;;;;;;24.83;13.48;;;;;;;13.99;100.00;102256.47;5056146;28;20133;-74
2023/04/17 10:22:55;;;;;;;22.88;11.82;;;;;;;14.21;100.00;102251.59;5053991;28;20056;-75
2023/04/17 10:25:23;;;;;;;24.15;12.65;;;;;;;14.26;100.00;102254.78;5067970;28;20092;-75
2023/04/17 10:27:53;;;;;;;25.55;13.27;;;;;;;14.42;100.00;102254.31;5069617;28;20090;-73
2023/04/17 10:30:25;;;;;;;24.27;12.68;;;;;;;14.46;100.00;102247.50;5069560;28;20071;-74
2023/04/17 10:33:19;;;;;;;22.75;11.48;;;;;;;14.66;100.00;102248.56;5068452;28;20080;-72
2023/04/17 10:35:46;;;;;;;23.67;13.20;;;;;;;14.99;100.00;102252.78;5057891;28;20093;-71
2023/04/17 10:38:12;;;;;;;21.88;12.93;;;;;;;15.30;100.00;102243.31;5060925;28;20488;-73
2023/04/17 10:40:42;;;;;;;26.73;13.55;;;;;;;15.43;100.00;102240.81;5063899;28;20087;-74
2023/04/17 10:43:10;;;;;;;24.17;13.35;;;;;;;15.55;100.00;102235.50;5057337;28;20500;-73
2023/04/17 10:45:55;;;;;;;20.38;11.40;;;;;;;15.46;96.79;102240.78;5064704;28;20049;-76
2023/04/17 10:48:40;;;;;;;22.63;12.25;;;;;;;15.31;94.82;102242.09;5065933;28;20056;-77
2023/04/17 10:54:02;;;;;;;21.98;11.98;;;;;;;15.01;95.49;102241.94;5053011;28;20048;-75
2023/04/17 10:56:38;;;;;;;19.50;11.23;;;;;;;14.76;94.46;102230.13;5057069;28;20052;-78
2023/04/17 10:59:07;;;;;;;21.70;10.80;;;;;;;14.66;90.30;102231.78;5061458;28;20055;-75
2023/04/17 11:01:47;;;;;;;21.48;10.98;;;;;;;14.85;92.74;102230.44;5058855;28;20498;-76
2023/04/17 11:04:27;;;;;;;21.40;11.57;;;;;;;14.91;86.77;102220.41;5060587;28;20510;-75
2023/04/17 11:06:54;;;;;;;23.08;11.35;;;;;;;15.10;90.34;102221.88;5050277;28;20115;-77
2023/04/17 11:09:23;;;;;;;20.20;9.30;;;;;;;15.20;88.76;102223.78;5061495;28;20468;-77
2023/04/17 11:11:50;;;;;;;21.75;10.68;;;;;;;15.44;86.87;102217.19;5072496;28;20059;-74
2023/04/17 11:14:18;;;;;;;20.75;11.43;;;;;;;15.50;77.54;102209.94;5066108;28;20143;-74